createdAt,value
2024-02-18T00:14:25.390Z,1035.7
2024-02-18T00:29:21.927Z,1035.7
2024-02-18T00:44:17.938Z,1035.5
2024-02-18T00:59:14.622Z,1035.5
2024-02-18T01:14:10.907Z,1035.2
2024-02-18T01:29:05.859Z,1035.3
2024-02-18T01:44:01.637Z,1035.2
2024-02-18T01:58:57.396Z,1035.1
2024-02-18T02:13:53.309Z,1035
2024-02-18T02:28:49.419Z,1034.9
2024-02-18T02:43:45.467Z,1035
2024-02-18T02:58:41.315Z,1034.8
2024-02-18T03:13:36.979Z,1034.6
2024-02-18T03:28:32.891Z,1034.4
2024-02-18T03:43:29.309Z,1034.5
2024-02-18T03:58:25.441Z,1034.3
2024-02-18T04:13:21.698Z,1034.1
2024-02-18T04:28:17.645Z,1033.9
2024-02-18T04:43:14.138Z,1033.9
2024-02-18T04:58:10.191Z,1033.8
2024-02-18T05:13:06.329Z,1033.7
2024-02-18T05:28:02.194Z,1033.5
2024-02-18T05:42:58.334Z,1033.4
2024-02-18T05:57:54.353Z,1033
2024-02-18T06:12:50.626Z,1032.7
2024-02-18T06:27:46.829Z,1032.8
2024-02-18T06:42:42.947Z,1032.9
2024-02-18T06:57:39.609Z,1032.6
2024-02-18T07:12:35.973Z,1032.7
2024-02-18T07:27:32.389Z,1032.4
2024-02-18T07:42:28.410Z,1032.2
2024-02-18T07:57:24.958Z,1032.1
2024-02-18T08:12:21.551Z,1031.8
2024-02-18T08:27:18.264Z,1031.3
2024-02-18T08:42:15.032Z,1031.2
2024-02-18T08:57:11.714Z,1030.9
2024-02-18T09:12:08.286Z,1030.4
2024-02-18T09:27:04.485Z,1030.2
2024-02-18T09:42:00.770Z,1030.1
2024-02-18T09:56:56.926Z,1029.9
2024-02-18T10:11:53.500Z,1029.7
2024-02-18T10:26:49.718Z,1029.7
2024-02-18T10:41:45.856Z,1029.5
2024-02-18T10:56:42.094Z,1029.3
2024-02-18T11:11:38.304Z,1029
2024-02-18T11:26:34.828Z,1028.7
2024-02-18T11:41:31.184Z,1028.7
2024-02-18T11:56:27.468Z,1028.5
2024-02-18T12:11:23.439Z,1028.2
2024-02-18T12:26:19.674Z,1027.9
2024-02-18T12:41:15.711Z,1027.5
2024-02-18T12:44:26.081Z,1027.5
2024-02-18T12:59:03.750Z,1027.2
2024-02-18T13:14:00.222Z,1027
2024-02-18T13:28:56.180Z,1027
2024-02-18T13:43:51.716Z,1026.7
2024-02-18T13:58:48.182Z,1026.4
2024-02-18T14:13:43.880Z,1025.8
2024-02-18T14:28:40.364Z,1026
2024-02-18T14:43:36.635Z,1026.1
2024-02-18T14:58:32.188Z,1025.9
2024-02-18T15:13:28.294Z,1025.6
2024-02-18T15:28:25.161Z,1025.2
2024-02-18T15:43:21.719Z,1024.9
2024-02-18T15:58:18.123Z,1024.8
2024-02-18T16:13:14.120Z,1024.6
2024-02-18T16:28:09.959Z,1024.6
2024-02-18T16:43:06.510Z,1024.3
2024-02-18T16:58:02.370Z,1024.4
2024-02-18T17:12:58.660Z,1024.4
2024-02-18T17:27:54.890Z,1024.5
2024-02-18T17:42:50.720Z,1024.6
2024-02-18T17:57:47.138Z,1024.7
2024-02-18T18:12:43.323Z,1024.8
2024-02-18T18:27:39.507Z,1025.1
2024-02-18T18:39:30.379Z,1025.4
2024-02-18T18:54:26.412Z,1025.4
2024-02-18T19:09:22.602Z,1025.3
2024-02-18T19:24:19.217Z,1025.5
2024-02-18T19:39:15.230Z,1025.5
2024-02-18T19:54:11.763Z,1025.4
2024-02-18T20:09:07.585Z,1025.2
2024-02-18T20:24:04.272Z,1025.3
2024-02-18T20:39:00.374Z,1025.5
2024-02-18T20:53:56.741Z,1025.7
2024-02-18T21:08:52.921Z,1025.9
2024-02-18T21:19:32.265Z,1025.8
2024-02-18T21:34:27.796Z,1025.8
2024-02-18T21:49:23.444Z,1026
2024-02-18T22:04:19.666Z,1026.1
2024-02-18T22:19:16.293Z,1026.2
2024-02-18T22:34:12.356Z,1026.2
2024-02-18T22:49:08.280Z,1026.4
2024-02-18T23:04:04.712Z,1026.5
2024-02-18T23:19:00.816Z,1026.6
2024-02-18T23:33:57.411Z,1026.7
2024-02-18T23:48:53.601Z,1026.7
